Tropical Cyclones
[Index]
Main Index Home Page Stock Weather Photos Extreme Storms Discussion Storm News and Storm Chasing Reports Tropical Cyclones / Hurricanes / Typhoons Weather Data and Links Wild Fires / Bushfires Weather Observation Techniques Weather Picture Catalogue Tornado Pictures and Reports Stock Video Footage and DVDs for sale
Season 1979-1980 Tropical Cyclone ALBINE Track Map
Season 1979-1980 Summaries: [BoM-AU] [JTWC-AU] [JTWC-SIO] [JTWC-SPAC] [JTWC-SH]
<<- Previous TC | JTWC 1979-1980 Season | Next TC ->>

click for intensity scale information  Lat/long Grid: Show Hide

 Date Labels: Show Hide

Joint Typhoon Warning Centre Cyclone Data

Name: ALBINE

25 Nov 1979 00:00 UTC to 06 Dec 1979 06:00 UTC

    date/time    lat    long     hPa   cat  kts
1979-11-25 00    7.0    86.0                  25          
1979-11-25 06    7.9    85.8                  25          
1979-11-25 12    8.8    85.5                  25          
1979-11-25 18    9.7    85.1                  25          
1979-11-26 00   10.4    84.4                  30          
1979-11-26 06   10.3    83.0                  30          
1979-11-26 12   10.0    81.5                  35          
1979-11-26 18    9.9    80.7                  35          
1979-11-27 00    9.8    80.0                  35          
1979-11-27 06    9.9    79.4            1     40          
1979-11-27 12   10.1    78.9            1     45          
1979-11-27 18   10.2    78.5            1     45          
1979-11-28 00   10.3    78.0            1     50          
1979-11-28 06   10.7    77.5            1     50          
1979-11-28 12   11.1    76.9            2     55          
1979-11-28 18   11.4    76.2            2     55          
1979-11-29 00   11.7    75.5            2     60          
1979-11-29 06   12.0    74.8            2     65          
1979-11-29 12   12.2    74.0            2     70          
1979-11-29 18   12.5    73.3            3     85          
1979-11-30 00   12.8    72.5            4    100          
1979-11-30 06   13.3    71.9            4    100          
1979-11-30 12   13.9    71.5            4    100          
1979-11-30 18   14.8    72.1            4    100          
1979-12-01 00   15.8    72.5            4    100          
1979-12-01 06   16.5    71.8            3     95          
1979-12-01 12   17.0    71.0            3     90          
1979-12-01 18   17.2    70.3            3     85          
1979-12-02 00   17.5    69.5            3     80          
1979-12-02 06   17.7    68.7            3     80          
1979-12-02 12   18.0    68.0            3     80          
1979-12-02 18   18.4    67.9            3     75          
1979-12-03 00   18.9    67.9            2     65          
1979-12-03 06   19.5    67.9            2     60          
1979-12-03 12   20.1    67.8            2     60          
1979-12-03 18   20.7    67.8            2     60          
1979-12-04 00   21.3    67.7            2     60          
1979-12-04 06   21.8    67.5            2     55          
1979-12-04 12   22.3    67.2            1     45          
1979-12-04 18   22.6    67.1            1     45          
1979-12-05 00   23.0    67.0            1     45          
1979-12-05 06   23.9    66.9            1     40          
1979-12-05 12   25.2    66.9                  35          
1979-12-05 18   26.8    68.0                  30          
1979-12-06 00   28.3    70.0                  25          
1979-12-06 06   29.5    72.0                  25          
Winds are 1-min average.

Tropical cyclone tracks developed by Michael Bath using data from the Joint Typhoon Warning Centre Best Tracks and Google Maps.


[Australian Severe Weather index] [Copyright Notice] [Email Contacts] [Search This Site] [Privacy Policy]
Document: tropical_cyclone_albine.htm Updated: 18 September 2016